createdAt,value
2022-11-24T00:01:59.209Z,100214.00
2022-11-24T00:04:28.502Z,100214.94
2022-11-24T00:06:57.821Z,100218.88
2022-11-24T00:09:27.068Z,100219.09
2022-11-24T00:11:56.339Z,100214.44
2022-11-24T00:14:26.603Z,100215.88
2022-11-24T00:16:55.954Z,100215.34
2022-11-24T00:19:26.634Z,100217.19
2022-11-24T00:21:55.912Z,100221.69
2022-11-24T00:24:25.142Z,100222.38
2022-11-24T00:26:54.455Z,100226.66
2022-11-24T00:29:23.698Z,100232.78
2022-11-24T00:31:52.944Z,100230.91
2022-11-24T00:34:22.258Z,100235.38
2022-11-24T00:36:52.862Z,100236.31
2022-11-24T00:39:22.100Z,100237.25
2022-11-24T00:41:51.378Z,100229.47
2022-11-24T00:44:20.656Z,100237.34
2022-11-24T00:46:49.996Z,100234.03
2022-11-24T00:49:19.352Z,100248.78
2022-11-24T00:51:48.586Z,100252.41
2022-11-24T00:54:19.397Z,100241.38
2022-11-24T00:56:49.388Z,100254.34
2022-11-24T00:59:18.741Z,100250.84
2022-11-24T01:01:48.014Z,100255.31
2022-11-24T01:04:17.300Z,100258.09
2022-11-24T01:06:46.607Z,100255.63
2022-11-24T01:09:15.833Z,100257.38
2022-11-24T01:12:04.625Z,100260.19
2022-11-24T01:14:34.157Z,100257.38
2022-11-24T01:17:03.531Z,100256.66
2022-11-24T01:19:32.906Z,100266.06
2022-11-24T01:22:02.169Z,100267.84
2022-11-24T01:24:31.691Z,100273.03
2022-11-24T01:27:02.628Z,100268.47
2022-11-24T01:29:32.048Z,100266.00
2022-11-24T01:32:01.307Z,100274.59
2022-11-24T01:34:30.667Z,100270.34
2022-11-24T01:37:00.481Z,100271.06
2022-11-24T01:39:29.737Z,100257.16
2022-11-24T01:42:04.046Z,100260.59
2022-11-24T01:44:34.052Z,100264.00
2022-11-24T01:47:08.072Z,100265.78
2022-11-24T01:49:42.941Z,100275.09
2022-11-24T01:52:17.143Z,100264.63
2022-11-24T01:54:52.763Z,100270.56
2022-11-24T01:57:27.319Z,100275.75
2022-11-24T02:00:00.817Z,100273.97
2022-11-24T02:02:31.867Z,100279.06
2022-11-24T02:05:06.752Z,100281.56
2022-11-24T02:07:37.792Z,100278.03
2022-11-24T02:10:13.346Z,100284.88
2022-11-24T02:12:47.471Z,100287.25
2022-11-24T02:15:18.056Z,100288.00
2022-11-24T02:17:47.435Z,100287.09
2022-11-24T02:20:17.719Z,100282.81
2022-11-24T02:22:54.840Z,100287.81
2022-11-24T02:25:36.751Z,100294.44
2022-11-24T02:28:10.639Z,100291.94
2022-11-24T02:30:40.475Z,100296.34
2022-11-24T02:33:10.959Z,100299.72
2022-11-24T02:35:40.758Z,100291.94
2022-11-24T02:38:13.643Z,100295.91
2022-11-24T02:40:45.715Z,100294.34
2022-11-24T02:43:20.904Z,100294.22
2022-11-24T02:45:50.308Z,100293.53
2022-11-24T02:48:19.601Z,100304.13
2022-11-24T02:50:48.887Z,100311.06
2022-11-24T02:53:18.111Z,100305.88
2022-11-24T02:55:47.391Z,100302.44
2022-11-24T02:58:18.113Z,100304.41
2022-11-24T03:00:47.475Z,100299.94
2022-11-24T03:03:16.817Z,100301.28
2022-11-24T03:05:46.215Z,100306.56
2022-11-24T03:08:15.469Z,100306.56
2022-11-24T03:10:44.720Z,100318.75
2022-11-24T03:13:14.020Z,100319.47
2022-11-24T03:15:44.693Z,100306.47
2022-11-24T03:18:14.016Z,100312.50
2022-11-24T03:20:44.180Z,100322.25
2022-11-24T03:23:13.408Z,100322.34
2022-11-24T03:25:42.665Z,100322.06
2022-11-24T03:28:11.905Z,100317.78
2022-11-24T03:30:41.346Z,100328.59
2022-11-24T03:33:12.013Z,100330.72
2022-11-24T03:35:41.269Z,100335.91
2022-11-24T03:38:10.616Z,100336.97
2022-11-24T03:40:39.850Z,100340.94
2022-11-24T03:43:09.098Z,100341.75
2022-11-24T03:45:45.842Z,100345.91
2022-11-24T03:48:18.626Z,100345.81
2022-11-24T03:50:55.961Z,100348.59
2022-11-24T03:53:26.734Z,100350.81
2022-11-24T03:55:56.495Z,100355.25
2022-11-24T03:58:26.151Z,100353.41
2022-11-24T04:00:56.093Z,100354.22
2022-11-24T04:03:27.525Z,100353.19
2022-11-24T04:05:56.897Z,100353.28
2022-11-24T04:08:26.194Z,100362.72
2022-11-24T04:10:55.832Z,100360.97
2022-11-24T04:13:26.187Z,100367.63
2022-11-24T04:15:55.762Z,100376.25
2022-11-24T04:18:26.424Z,100389.94
2022-11-24T04:20:55.547Z,100384.75
2022-11-24T04:23:24.892Z,100386.41
2022-11-24T04:25:53.942Z,100388.94
2022-11-24T04:28:23.041Z,100388.81
2022-11-24T04:30:52.154Z,100390.56
2022-11-24T04:33:21.301Z,100399.09
2022-11-24T04:35:55.083Z,100405.13
2022-11-24T04:39:19.986Z,100397.34
2022-11-24T04:41:13.419Z,100399.81
2022-11-24T04:43:42.478Z,100404.09
2022-11-24T04:46:12.442Z,100404.09
2022-11-24T04:48:42.575Z,100400.66
2022-11-24T04:51:14.716Z,100404.63
2022-11-24T04:53:43.871Z,100405.25
2022-11-24T04:56:13.044Z,100407.00
2022-11-24T04:58:42.184Z,100417.41
2022-11-24T05:01:11.483Z,100418.97
2022-11-24T05:03:40.570Z,100411.91
2022-11-24T05:06:09.858Z,100420.53
2022-11-24T05:08:40.549Z,100422.28
2022-11-24T05:11:09.795Z,100423.13
2022-11-24T05:13:38.891Z,100426.34
2022-11-24T05:16:08.975Z,100424.28
2022-11-24T05:18:38.880Z,100426.78
2022-11-24T05:21:08.137Z,100432.78
2022-11-24T05:23:38.990Z,100435.19
2022-11-24T05:26:08.610Z,100428.22
2022-11-24T05:28:37.695Z,100434.06
2022-11-24T05:31:07.204Z,100433.97
2022-11-24T05:33:39.484Z,100435.72
2022-11-24T05:36:29.568Z,100433.25
2022-11-24T05:39:00.042Z,100442.59
2022-11-24T05:41:29.134Z,100438.22
2022-11-24T05:43:58.209Z,100454.66
2022-11-24T05:46:27.488Z,100446.84
2022-11-24T05:48:56.581Z,100444.97
2022-11-24T05:51:25.704Z,100453.59
2022-11-24T05:53:54.751Z,100454.44
2022-11-24T05:56:27.315Z,100454.31
2022-11-24T05:58:56.392Z,100461.94
2022-11-24T06:01:25.509Z,100463.69
2022-11-24T06:03:54.636Z,100467.84
2022-11-24T06:06:23.743Z,100472.94
2022-11-24T06:08:52.793Z,100466.00
2022-11-24T06:11:22.106Z,100475.44
2022-11-24T06:13:52.561Z,100472.75
2022-11-24T06:16:21.846Z,100470.06
2022-11-24T06:18:51.065Z,100472.53
2022-11-24T06:21:20.153Z,100475.88
2022-11-24T06:23:49.954Z,100471.81
2022-11-24T06:26:19.018Z,100477.94
2022-11-24T06:28:48.163Z,100485.94
2022-11-24T06:31:18.704Z,100485.09
2022-11-24T06:33:47.814Z,100485.09
2022-11-24T06:36:17.329Z,100493.59
2022-11-24T06:38:46.379Z,100490.09
2022-11-24T06:41:17.243Z,100497.25
2022-11-24T06:43:47.921Z,100503.19
2022-11-24T06:46:18.387Z,100508.28
2022-11-24T06:48:47.577Z,100515.06
2022-11-24T06:51:18.839Z,100517.31
2022-11-24T06:53:48.157Z,100525.94
2022-11-24T06:56:20.882Z,100523.16
2022-11-24T06:58:51.518Z,100522.22
2022-11-24T07:01:23.467Z,100527.72
2022-11-24T07:03:53.787Z,100526.25
2022-11-24T07:06:24.111Z,100525.63
2022-11-24T07:08:53.729Z,100529.97
2022-11-24T07:11:24.585Z,100545.47
2022-11-24T07:13:59.505Z,100544.88
2022-11-24T07:16:30.894Z,100546.66
2022-11-24T07:19:00.866Z,100552.13
2022-11-24T07:21:30.605Z,100549.44
2022-11-24T07:24:00.125Z,100544.56
2022-11-24T07:26:29.481Z,100555.56
2022-11-24T07:28:58.736Z,100563.69
2022-11-24T07:31:29.248Z,100554.84
2022-11-24T07:33:58.305Z,100560.06
2022-11-24T07:36:27.539Z,100572.03
2022-11-24T07:38:56.615Z,100575.34
2022-11-24T07:41:25.689Z,100569.88
2022-11-24T07:43:54.798Z,100573.94
2022-11-24T07:46:23.926Z,100581.59
2022-11-24T07:48:54.405Z,100593.38
2022-11-24T07:51:23.644Z,100590.47
2022-11-24T07:53:52.790Z,100594.63
2022-11-24T07:56:22.147Z,100591.84
2022-11-24T07:58:52.989Z,100604.00
2022-11-24T08:01:22.476Z,100601.19
2022-11-24T08:03:53.077Z,100600.28
2022-11-24T08:06:25.399Z,100601.81
2022-11-24T08:08:56.980Z,100612.66
2022-11-24T08:11:26.147Z,100612.34
2022-11-24T08:13:55.274Z,100613.09
2022-11-24T08:16:24.684Z,100622.34
2022-11-24T08:18:57.179Z,100628.28
2022-11-24T08:21:26.982Z,100627.47
2022-11-24T08:23:57.094Z,100634.66
2022-11-24T08:26:26.677Z,100630.78
2022-11-24T08:28:57.805Z,100631.09
2022-11-24T08:31:33.404Z,100630.28
2022-11-24T08:34:05.819Z,100637.13
2022-11-24T08:36:35.134Z,100632.97
2022-11-24T08:39:04.543Z,100628.69
2022-11-24T08:41:33.743Z,100640.78
2022-11-24T08:44:02.790Z,100644.31
2022-11-24T08:46:32.088Z,100639.84
2022-11-24T08:49:01.207Z,100655.25
2022-11-24T08:51:31.615Z,100647.16
2022-11-24T08:54:02.725Z,100652.97
2022-11-24T08:56:33.839Z,100648.59
2022-11-24T08:59:03.060Z,100654.53
2022-11-24T09:01:32.299Z,100662.16
2022-11-24T09:04:01.576Z,100665.25
2022-11-24T09:06:32.203Z,100672.03
2022-11-24T09:09:01.604Z,100664.97
2022-11-24T09:11:31.104Z,100667.56
2022-11-24T09:14:00.163Z,100676.75
2022-11-24T09:16:30.241Z,100676.75
2022-11-24T09:19:01.355Z,100677.38
2022-11-24T09:21:34.129Z,100676.72
2022-11-24T09:24:03.308Z,100682.44
2022-11-24T09:26:34.413Z,100684.44
2022-11-24T09:29:04.963Z,100686.81
2022-11-24T09:31:36.183Z,100684.94
2022-11-24T09:34:06.887Z,100692.16
2022-11-24T09:36:37.716Z,100685.66
2022-11-24T09:39:06.983Z,100683.81
2022-11-24T09:42:07.096Z,100694.31
2022-11-24T09:44:58.598Z,100695.53
2022-11-24T09:47:39.450Z,100693.03
2022-11-24T09:50:14.531Z,100692.94
2022-11-24T09:52:51.119Z,100702.50
2022-11-24T09:55:34.201Z,100702.03
2022-11-24T09:58:22.882Z,100703.50
2022-11-24T10:00:55.486Z,100706.22
2022-11-24T10:03:31.552Z,100699.78
2022-11-24T10:06:03.433Z,100700.09
2022-11-24T10:08:50.702Z,100706.09
2022-11-24T10:11:31.918Z,100692.06
2022-11-24T10:14:25.077Z,100697.75
2022-11-24T10:16:58.596Z,100708.38
2022-11-24T10:19:40.510Z,100702.78
2022-11-24T10:22:27.007Z,100711.81
2022-11-24T10:25:13.529Z,100711.56
2022-11-24T10:27:46.581Z,100718.34
2022-11-24T10:30:17.758Z,100724.31
2022-11-24T10:32:49.126Z,100726.56
2022-11-24T10:35:20.558Z,100721.69
2022-11-24T10:37:57.398Z,100721.69
2022-11-24T10:43:26.416Z,100722.91
2022-11-24T10:46:00.558Z,100723.09
2022-11-24T10:48:39.373Z,100728.19
2022-11-24T10:51:35.827Z,100728.31
2022-11-24T10:54:14.030Z,100716.25
2022-11-24T10:56:46.051Z,100721.47
2022-11-24T10:59:37.244Z,100720.84
2022-11-24T11:02:29.645Z,100727.31
2022-11-24T11:04:58.992Z,100718.97
2022-11-24T11:07:28.854Z,100734.03
2022-11-24T11:10:19.443Z,100725.34
2022-11-24T11:12:49.908Z,100723.38
2022-11-24T11:15:27.819Z,100730.34
2022-11-24T11:17:59.877Z,100737.16
2022-11-24T11:20:32.336Z,100734.75
2022-11-24T11:23:14.370Z,100738.84
2022-11-24T11:25:43.679Z,100735.75
2022-11-24T11:28:24.874Z,100737.06
2022-11-24T11:31:19.864Z,100736.53
2022-11-24T11:34:03.666Z,100745.91
2022-11-24T11:36:35.413Z,100744.91
2022-11-24T11:39:06.011Z,100741.25
2022-11-24T11:41:37.990Z,100749.59
2022-11-24T11:44:18.743Z,100759.31
2022-11-24T11:46:48.494Z,100762.06
2022-11-24T11:49:17.836Z,100762.41
2022-11-24T11:52:01.329Z,100767.88
2022-11-24T11:54:49.102Z,100773.00
2022-11-24T11:57:27.236Z,100768.59
2022-11-24T12:00:17.172Z,100783.22
2022-11-24T12:03:05.770Z,100777.50
2022-11-24T12:05:47.267Z,100779.91
2022-11-24T12:08:29.362Z,100775.03
2022-11-24T12:11:07.248Z,100774.19
2022-11-24T12:13:55.610Z,100791.41
2022-11-24T12:16:35.060Z,100796.53
2022-11-24T12:19:30.263Z,100794.75
2022-11-24T12:22:08.431Z,100791.78
2022-11-24T12:24:46.504Z,100804.63
2022-11-24T12:27:24.864Z,100804.47
2022-11-24T12:30:10.599Z,100806.16
2022-11-24T12:33:11.397Z,100801.13
2022-11-24T12:35:43.946Z,100814.59
2022-11-24T12:38:43.255Z,100804.72
2022-11-24T12:41:42.658Z,100814.00
2022-11-24T12:44:28.730Z,100810.66
2022-11-24T12:47:07.793Z,100813.41
2022-11-24T12:49:51.340Z,100820.31
2022-11-24T12:52:25.533Z,100837.78
2022-11-24T12:54:56.385Z,100829.53
2022-11-24T12:57:31.565Z,100830.50
2022-11-24T13:00:07.065Z,100838.13
2022-11-24T13:02:52.120Z,100831.22
2022-11-24T13:05:31.484Z,100825.75
2022-11-24T13:08:04.046Z,100833.25
2022-11-24T13:13:30.137Z,100840.59
2022-11-24T13:19:14.657Z,100836.53
2022-11-24T13:22:15.452Z,100848.56
2022-11-24T13:24:45.386Z,100848.81
2022-11-24T13:27:41.861Z,100852.13
2022-11-24T13:30:51.947Z,100850.09
2022-11-24T13:33:40.008Z,100853.56
2022-11-24T13:36:31.394Z,100859.63
2022-11-24T13:39:03.281Z,100856.28
2022-11-24T13:42:41.639Z,100859.03
2022-11-24T13:45:01.894Z,100866.28
2022-11-24T13:47:40.724Z,100873.13
2022-11-24T13:50:24.891Z,100873.13
2022-11-24T13:53:07.736Z,100873.97
2022-11-24T13:55:41.222Z,100878.50
2022-11-24T13:58:38.658Z,100882.78
2022-11-24T14:01:14.355Z,100889.91
2022-11-24T14:04:29.497Z,100890.84
2022-11-24T14:06:56.413Z,100892.84
2022-11-24T14:09:29.683Z,100893.34
2022-11-24T14:12:09.170Z,100896.06
2022-11-24T14:14:38.624Z,100895.63
2022-11-24T14:17:16.573Z,100897.41
2022-11-24T14:19:47.861Z,100889.47
2022-11-24T14:22:18.880Z,100899.69
2022-11-24T14:24:54.437Z,100903.84
2022-11-24T14:27:30.444Z,100898.50
2022-11-24T14:30:01.124Z,100906.44
2022-11-24T14:32:30.287Z,100900.63
2022-11-24T14:34:59.604Z,100904.31
2022-11-24T14:37:28.715Z,100909.75
2022-11-24T14:39:57.815Z,100914.50
2022-11-24T14:42:29.488Z,100923.97
2022-11-24T14:45:00.944Z,100926.13
2022-11-24T14:47:32.617Z,100929.38
2022-11-24T14:50:11.131Z,100938.97
2022-11-24T14:52:47.002Z,100941.28
2022-11-24T14:55:27.840Z,100944.47
2022-11-24T14:57:58.525Z,100939.88
2022-11-24T15:00:30.997Z,100938.34
2022-11-24T15:03:16.906Z,100947.25
2022-11-24T15:05:55.353Z,100945.78
2022-11-24T15:08:25.795Z,100951.72
2022-11-24T15:11:00.154Z,100940.66
2022-11-24T15:13:34.853Z,100945.69
2022-11-24T15:16:06.090Z,100953.59
2022-11-24T15:18:43.353Z,100954.13
2022-11-24T15:21:18.947Z,100957.56
2022-11-24T15:24:08.006Z,100958.47
2022-11-24T15:26:41.923Z,100966.09
2022-11-24T15:29:13.792Z,100970.34
2022-11-24T15:31:47.855Z,100975.81
2022-11-24T15:34:19.972Z,100973.81
2022-11-24T15:36:49.101Z,100973.81
2022-11-24T15:39:18.164Z,100967.97
2022-11-24T15:41:47.225Z,100962.44
2022-11-24T15:44:17.652Z,100963.72
2022-11-24T15:46:46.784Z,100966.44
2022-11-24T15:49:15.932Z,100969.97
2022-11-24T15:51:46.926Z,100971.97
2022-11-24T15:54:19.516Z,100967.50
2022-11-24T15:56:48.598Z,100964.88
2022-11-24T15:59:21.212Z,100975.50
2022-11-24T16:01:51.036Z,100978.94
2022-11-24T16:04:20.218Z,100974.50
2022-11-24T16:06:49.335Z,100971.78
2022-11-24T16:09:18.618Z,100977.94
2022-11-24T16:11:47.659Z,100978.38
2022-11-24T16:14:18.204Z,100979.00
2022-11-24T16:16:47.506Z,100986.41
2022-11-24T16:19:16.617Z,100980.34
2022-11-24T16:21:48.033Z,100982.94
2022-11-24T16:24:17.296Z,100982.13
2022-11-24T16:26:46.478Z,100983.28
2022-11-24T16:29:16.767Z,100986.06
2022-11-24T16:31:47.566Z,100987.53
2022-11-24T16:34:17.062Z,100988.06
2022-11-24T16:36:46.184Z,100989.41
2022-11-24T16:39:15.303Z,100992.75
2022-11-24T16:41:44.366Z,100986.06
2022-11-24T16:44:13.410Z,100984.41
2022-11-24T16:46:44.590Z,100988.97
2022-11-24T16:49:15.001Z,100988.88
2022-11-24T16:51:44.275Z,100989.16
2022-11-24T16:54:13.395Z,100988.88
2022-11-24T16:56:42.498Z,100992.31
2022-11-24T16:59:11.785Z,100995.63
2022-11-24T17:01:41.044Z,100996.38
2022-11-24T17:04:12.809Z,100997.69
2022-11-24T17:06:43.700Z,101004.09
2022-11-24T17:09:12.781Z,101007.53
2022-11-24T17:11:42.138Z,101004.59
2022-11-24T17:14:12.228Z,101005.09
2022-11-24T17:16:41.346Z,101004.59
2022-11-24T17:19:10.437Z,100999.66
2022-11-24T17:21:39.612Z,101006.44
2022-11-24T17:24:15.440Z,101004.53
2022-11-24T17:26:48.724Z,101012.56
2022-11-24T17:29:18.454Z,101018.91
2022-11-24T17:31:47.609Z,101027.03
2022-11-24T17:34:16.755Z,101021.38
2022-11-24T17:36:46.015Z,101029.91
2022-11-24T17:39:20.329Z,101037.50
2022-11-24T17:41:52.395Z,101045.16
2022-11-24T17:44:21.477Z,101046.00
2022-11-24T17:46:50.488Z,101055.22
2022-11-24T17:49:21.068Z,101059.47
2022-11-24T17:51:50.502Z,101067.31
2022-11-24T17:57:10.031Z,101065.75
2022-11-24T17:59:39.058Z,101068.47
2022-11-24T18:02:09.830Z,101066.59
2022-11-24T18:04:38.935Z,101060.63
2022-11-24T18:07:08.008Z,101066.06
2022-11-24T18:09:39.058Z,101074.28
2022-11-24T18:12:08.921Z,101066.75
2022-11-24T18:14:37.990Z,101076.59
2022-11-24T18:17:07.363Z,101079.09
2022-11-24T18:19:36.531Z,101079.19
2022-11-24T18:22:05.624Z,101083.38
2022-11-24T18:24:35.257Z,101077.13
2022-11-24T18:27:05.834Z,101085.78
2022-11-24T18:29:34.926Z,101091.13
2022-11-24T18:32:04.359Z,101092.06
2022-11-24T18:34:34.098Z,101088.94
2022-11-24T18:37:03.405Z,101092.38
2022-11-24T18:39:32.472Z,101092.75
2022-11-24T18:42:01.601Z,101088.06
2022-11-24T18:44:32.288Z,101088.22
2022-11-24T18:47:01.576Z,101085.03
2022-11-24T18:49:31.834Z,101084.72
2022-11-24T18:52:01.120Z,101091.75
2022-11-24T18:54:30.467Z,101094.25
2022-11-24T18:57:03.252Z,101085.44
2022-11-24T18:59:34.185Z,101090.63
2022-11-24T19:02:03.286Z,101094.34
2022-11-24T19:04:32.677Z,101099.13
2022-11-24T19:07:02.040Z,101096.72
2022-11-24T19:09:31.288Z,101102.97
2022-11-24T19:12:00.374Z,101101.25
2022-11-24T19:14:29.516Z,101104.88
2022-11-24T19:17:02.852Z,101096.31
2022-11-24T19:19:34.378Z,101102.94
2022-11-24T19:22:04.557Z,101106.88
2022-11-24T19:24:33.805Z,101106.88
2022-11-24T19:27:03.208Z,101106.28
2022-11-24T19:29:32.537Z,101104.66
2022-11-24T19:32:03.223Z,101105.88
2022-11-24T19:34:32.401Z,101106.47
2022-11-24T19:37:01.647Z,101102.38
2022-11-24T19:39:30.735Z,101107.66
2022-11-24T19:42:00.105Z,101117.06
2022-11-24T19:44:29.284Z,101112.81
2022-11-24T19:46:58.925Z,101117.88
2022-11-24T19:49:30.689Z,101122.16
2022-11-24T19:52:01.680Z,101115.16
2022-11-24T19:54:32.790Z,101124.69
2022-11-24T19:57:02.567Z,101125.63
2022-11-24T19:59:32.176Z,101125.34
2022-11-24T20:02:02.554Z,101121.31
2022-11-24T20:04:38.140Z,101133.00
2022-11-24T20:07:08.137Z,101149.69
2022-11-24T20:09:37.828Z,101143.88
2022-11-24T20:12:09.874Z,101143.81
2022-11-24T20:14:39.563Z,101147.03
2022-11-24T20:17:09.366Z,101149.00
2022-11-24T20:19:40.526Z,101155.13
2022-11-24T20:22:10.207Z,101158.19
2022-11-24T20:24:39.959Z,101161.44
2022-11-24T20:27:09.598Z,101149.44
2022-11-24T20:29:45.255Z,101161.53
2022-11-24T20:32:19.839Z,101152.31
2022-11-24T20:34:50.919Z,101149.06
2022-11-24T20:37:20.631Z,101156.28
2022-11-24T20:39:51.582Z,101162.91
2022-11-24T20:42:21.315Z,101156.16
2022-11-24T20:44:51.453Z,101151.53
2022-11-24T20:47:21.071Z,101156.78
2022-11-24T20:49:52.287Z,101164.91
2022-11-24T20:52:22.207Z,101163.81
2022-11-24T20:54:52.297Z,101170.88
2022-11-24T20:57:22.373Z,101167.59
2022-11-24T20:59:52.552Z,101176.78
2022-11-24T21:02:22.297Z,101172.41
2022-11-24T21:04:53.401Z,101177.88
2022-11-24T21:07:23.198Z,101180.75
2022-11-24T21:09:52.986Z,101183.13
2022-11-24T21:12:23.056Z,101185.88
2022-11-24T21:14:52.579Z,101192.66
2022-11-24T21:17:22.262Z,101195.41
2022-11-24T21:19:56.934Z,101184.56
2022-11-24T21:22:30.412Z,101190.13
2022-11-24T21:25:00.382Z,101188.25
2022-11-24T21:27:30.159Z,101196.16
2022-11-24T21:29:59.749Z,101193.16
2022-11-24T21:32:29.522Z,101193.09
2022-11-24T21:35:00.776Z,101198.25
2022-11-24T21:37:30.832Z,101203.19
2022-11-24T21:39:59.922Z,101195.47
2022-11-24T21:42:28.972Z,101200.38
2022-11-24T21:45:00.582Z,101202.97
2022-11-24T21:47:30.215Z,101206.97
2022-11-24T21:50:01.387Z,101207.91
2022-11-24T21:52:31.040Z,101202.72
2022-11-24T21:55:01.407Z,101212.47
2022-11-24T21:57:31.896Z,101212.19
2022-11-24T22:00:01.864Z,101211.41
2022-11-24T22:02:35.592Z,101214.38
2022-11-24T22:05:06.656Z,101220.19
2022-11-24T22:07:35.769Z,101219.19
2022-11-24T22:10:05.335Z,101220.88
2022-11-24T22:12:34.463Z,101221.78
2022-11-24T22:15:03.570Z,101225.16
2022-11-24T22:17:32.794Z,101219.97
2022-11-24T22:20:01.860Z,101229.50
2022-11-24T22:22:32.343Z,101226.44
2022-11-24T22:25:01.391Z,101217.50
2022-11-24T22:27:30.457Z,101232.06
2022-11-24T22:29:59.577Z,101230.31
2022-11-24T22:32:28.706Z,101230.56
2022-11-24T22:34:57.823Z,101236.38
2022-11-24T22:37:26.872Z,101221.84
2022-11-24T22:39:57.284Z,101233.47
2022-11-24T22:42:26.397Z,101217.81
2022-11-24T22:44:55.482Z,101221.75
2022-11-24T22:47:24.586Z,101220.75
2022-11-24T22:49:53.677Z,101221.28
2022-11-24T22:52:22.715Z,101219.75
2022-11-24T22:54:51.748Z,101215.56
2022-11-24T22:57:22.260Z,101219.16
2022-11-24T22:59:51.335Z,101221.97
2022-11-24T23:02:20.488Z,101218.72
2022-11-24T23:04:49.581Z,101216.91
2022-11-24T23:07:18.678Z,101209.91
2022-11-24T23:09:47.915Z,101207.50
2022-11-24T23:12:18.098Z,101209.09
2022-11-24T23:14:49.743Z,101218.31
2022-11-24T23:17:18.842Z,101215.56
2022-11-24T23:19:47.904Z,101205.00
2022-11-24T23:22:16.968Z,101214.00
2022-11-24T23:24:46.064Z,101207.81
2022-11-24T23:27:15.216Z,101206.25
2022-11-24T23:29:44.289Z,101208.75
2022-11-24T23:32:14.675Z,101201.78
2022-11-24T23:34:43.766Z,101203.72
2022-11-24T23:37:12.885Z,101190.13
2022-11-24T23:39:41.931Z,101194.94
2022-11-24T23:42:11.030Z,101193.00
2022-11-24T23:44:40.064Z,101190.19
2022-11-24T23:47:09.111Z,101192.78
2022-11-24T23:49:39.479Z,101190.19
2022-11-24T23:52:08.570Z,101185.53
2022-11-24T23:54:37.763Z,101174.78
2022-11-24T23:57:06.920Z,101181.81
2022-11-24T23:59:35.989Z,101181.50
